Pemberville, OH

1:57 PM EDT on May 28, 2017 (GMT -0400)
Lemoyne | | Change Station
Active Advisory: Severe Thunderstorm Watch

Elev 640 ft 41.49 °N, 83.47 °W | Updated 27 seconds ago

Overcast
Overcast
76.3 °F
Feels Like 78 °F
N
2.9
Wind Variable Wind from SE
Gusts 4.9 mph

Today
High -- | Low -- °F
--% Chance of Precip.
Yesterday
High -- | Low -- °F
Precip. -- in
Pressure 29.71 in
Visibility 10.0 miles
Clouds Overcast 2400 ft
Heat Index 78 °F
Dew Point 68 °F
Humidity 77%
Rainfall 0.00 in
Snow Depth Not available.
6:04 AM 8:58 PM
Waxing Crescent, 12% visible
METAR KTDZ 281753Z AUTO 04007KT 10SM OVC024 23/18 A2972 RMK AO2 SLP061 T02330178 10250 20178 56009
Pressure 29.71 in
Visibility 10.0 miles
Clouds Overcast 2400 ft
Heat Index 78 °F
Dew Point 68 °F
Humidity 77%
Rainfall 0.00 in
Snow Depth Not available.
6:04 AM 8:58 PM
Waxing Crescent, 12% visible
METAR KTDZ 281753Z AUTO 04007KT 10SM OVC024 23/18 A2972 RMK AO2 SLP061 T02330178 10250 20178 56009

Get Your Daily Forecast Email!

Thanks for signing up!

Be on the lookout for a verification email in your inbox.

You'll start receiving severe weather alerts in your inbox..

×

10-Day Weather Forecast

Almanac

Astronomy

May. 28, 2017 Rise Set
Actual Time
Civil Twilight
Nautical Twilight
Astronomical Twilight
Moon
Length of Visible Light
Length of Day
Tomorrow will be .
, % of the Moon is Illuminated

Today's Extremes

State Highs State Lows

Community

WunderPhotos

Category 6

Welcome to Category 6. This is the collective home for Weather Underground's featured writeups by Dr. Jeff Masters (right), Bob Henson (left), Chris Burt, and other regular contributors.

Nearby

Air Quality

  Air Quality AQ Index Pollutant
Not available.

Snow Depth

Station Depth Elevation

Earthquake Activity

City Distance Mag. Time & Date
Minimum magnitude displayed is 2.5.

Coastal Water Temperatures

Place Temperature

Stations

Nearby Weather Stations

Station Location Temp. Windchill Dew Point Humidity Wind Precip. Elev Updated Type
                   

Watches & Warnings

Severe Thunderstorm Watch
Issued: 1:55 PM EDT May. 28, 2017 – National Weather Service

Severe Thunderstorm Watch 292 is in effect until 800 PM EDT

OH
. Ohio counties included are

Allen Ashland Ashtabula
Crawford Cuyahoga Defiance
Erie Fulton Geauga
Hancock Henry Huron
Lake Lorain Lucas
Medina Ottawa Paulding
Portage Putnam Richland
Sandusky Seneca Summit
Trumbull Van Wert Williams
wood Wyandot